createdAt,value
2018-10-18T00:02:03.330Z,9.17
2018-10-18T00:04:32.850Z,10.00
2018-10-18T00:07:02.153Z,8.70
2018-10-18T00:09:31.545Z,9.80
2018-10-18T00:12:00.820Z,9.10
2018-10-18T00:14:30.154Z,11.20
2018-10-18T00:16:59.556Z,9.80
2018-10-18T00:19:29.003Z,10.37
2018-10-18T00:21:58.525Z,9.37
2018-10-18T00:24:27.937Z,8.53
2018-10-18T00:26:57.449Z,9.60
2018-10-18T00:29:27.170Z,10.20
2018-10-18T00:31:56.453Z,9.00
2018-10-18T00:34:26.016Z,8.93
2018-10-18T00:36:55.495Z,9.37
2018-10-18T00:39:24.944Z,8.33
2018-10-18T00:41:54.465Z,9.50
2018-10-18T00:44:24.117Z,9.60
2018-10-18T00:46:53.572Z,8.87
2018-10-18T00:49:23.055Z,8.23
2018-10-18T00:51:52.439Z,8.10
2018-10-18T00:54:21.773Z,8.50
2018-10-18T00:56:51.297Z,9.00
2018-10-18T00:59:20.639Z,8.93
2018-10-18T01:01:49.967Z,8.57
2018-10-18T01:04:19.222Z,8.00
2018-10-18T01:06:48.697Z,8.00
2018-10-18T01:09:18.094Z,8.53
2018-10-18T01:11:47.435Z,9.63
2018-10-18T01:14:16.788Z,8.60
2018-10-18T01:16:46.157Z,9.50
2018-10-18T01:19:15.412Z,9.17
2018-10-18T01:21:44.808Z,8.00
2018-10-18T01:24:14.630Z,9.10
2018-10-18T01:26:44.148Z,8.33
2018-10-18T01:29:13.430Z,8.57
2018-10-18T01:31:42.770Z,7.80
2018-10-18T01:34:12.088Z,10.20
2018-10-18T01:36:41.586Z,10.20
2018-10-18T01:39:11.297Z,9.10
2018-10-18T01:41:41.199Z,9.23
2018-10-18T01:44:10.769Z,10.20
2018-10-18T01:46:40.196Z,8.63
2018-10-18T01:49:09.633Z,8.97
2018-10-18T01:51:39.029Z,8.60
2018-10-18T01:54:08.416Z,9.27
2018-10-18T01:56:37.844Z,8.60
2018-10-18T01:59:07.306Z,8.60
2018-10-18T02:01:36.609Z,10.80
2018-10-18T02:04:12.379Z,8.20
2018-10-18T02:06:41.674Z,8.83
2018-10-18T02:09:12.001Z,8.03
2018-10-18T02:11:41.806Z,8.00
2018-10-18T02:14:11.293Z,10.10
2018-10-18T02:16:40.718Z,9.70
2018-10-18T02:19:10.384Z,9.37
2018-10-18T02:21:39.477Z,8.73
2018-10-18T02:24:08.827Z,7.77
2018-10-18T02:26:38.093Z,7.03
2018-10-18T02:29:07.655Z,9.00
2018-10-18T02:31:37.151Z,6.83
2018-10-18T02:34:06.625Z,8.50
2018-10-18T02:36:36.101Z,8.40
2018-10-18T02:39:07.080Z,7.67
2018-10-18T02:41:36.637Z,6.87
2018-10-18T02:44:06.101Z,9.00
2018-10-18T02:46:35.399Z,8.40
2018-10-18T02:49:04.910Z,8.60
2018-10-18T02:51:34.319Z,9.10
2018-10-18T02:54:03.781Z,8.77
2018-10-18T02:56:33.041Z,8.67
2018-10-18T02:59:02.454Z,9.60
2018-10-18T03:01:31.824Z,12.20
2018-10-18T03:04:01.231Z,10.23
2018-10-18T03:06:31.357Z,8.97
2018-10-18T03:09:00.967Z,9.77
2018-10-18T03:11:30.219Z,7.93
2018-10-18T03:13:59.623Z,10.53
2018-10-18T03:16:28.941Z,8.37
2018-10-18T03:18:58.377Z,10.67
2018-10-18T03:21:27.691Z,10.47
2018-10-18T03:23:57.455Z,10.10
2018-10-18T03:26:26.766Z,9.43
2018-10-18T03:28:56.466Z,8.77
2018-10-18T03:31:26.012Z,8.93
2018-10-18T03:33:55.487Z,9.53
2018-10-18T03:36:25.161Z,9.87
2018-10-18T03:38:54.555Z,9.40
2018-10-18T03:41:23.979Z,9.30
2018-10-18T03:43:53.715Z,9.70
2018-10-18T03:46:23.174Z,9.83
2018-10-18T03:48:52.498Z,9.57
2018-10-18T03:51:21.837Z,10.80
2018-10-18T03:53:51.110Z,9.43
2018-10-18T03:56:20.438Z,9.43
2018-10-18T03:58:49.833Z,8.53
2018-10-18T04:01:19.425Z,8.60
2018-10-18T04:03:48.750Z,7.00
2018-10-18T04:06:18.450Z,9.37
2018-10-18T04:08:47.907Z,10.13
2018-10-18T04:11:17.246Z,8.67
2018-10-18T04:13:46.602Z,8.13
2018-10-18T04:16:15.834Z,10.67
2018-10-18T04:18:45.341Z,8.20
2018-10-18T04:21:14.726Z,8.60
2018-10-18T04:23:43.951Z,8.50
2018-10-18T04:26:13.394Z,9.03
2018-10-18T04:28:42.760Z,10.00
2018-10-18T04:31:12.194Z,9.37
2018-10-18T04:33:41.444Z,8.90
2018-10-18T04:36:10.914Z,8.50
2018-10-18T04:38:40.077Z,8.43
2018-10-18T04:41:09.538Z,8.40
2018-10-18T04:43:38.849Z,7.40
2018-10-18T04:46:08.290Z,9.40
2018-10-18T04:48:37.711Z,8.20
2018-10-18T04:51:07.176Z,8.13
2018-10-18T04:53:36.580Z,9.50
2018-10-18T04:56:05.933Z,8.27
2018-10-18T04:58:35.169Z,9.40
2018-10-18T05:01:04.694Z,8.43
2018-10-18T05:03:33.992Z,10.20
2018-10-18T05:06:05.049Z,8.87
2018-10-18T05:08:34.446Z,10.33
2018-10-18T05:11:03.901Z,10.47
2018-10-18T05:13:33.307Z,10.20
2018-10-18T05:16:03.644Z,10.57
2018-10-18T05:18:32.940Z,13.70
2018-10-18T05:21:02.299Z,22.73
2018-10-18T05:23:31.569Z,23.50
2018-10-18T05:26:01.012Z,21.80
2018-10-18T05:28:30.605Z,18.33
2018-10-18T05:31:00.176Z,13.03
2018-10-18T05:33:29.431Z,12.57
2018-10-18T05:35:59.008Z,13.10
2018-10-18T05:38:28.434Z,14.93
2018-10-18T05:40:57.764Z,12.77
2018-10-18T05:43:27.130Z,15.40
2018-10-18T05:45:56.987Z,13.67
2018-10-18T05:48:26.416Z,14.70
2018-10-18T05:50:55.801Z,14.73
2018-10-18T05:53:25.072Z,15.60
2018-10-18T05:55:54.563Z,16.30
2018-10-18T05:58:24.040Z,15.77
2018-10-18T06:00:53.501Z,16.90
2018-10-18T06:03:22.702Z,15.30
2018-10-18T06:05:53.372Z,12.60
2018-10-18T06:08:22.918Z,10.73
2018-10-18T06:11:03.455Z,11.83
2018-10-18T06:13:32.684Z,16.03
2018-10-18T06:16:02.008Z,12.77
2018-10-18T06:18:31.492Z,12.47
2018-10-18T06:21:01.137Z,12.60
2018-10-18T06:23:31.576Z,13.93
2018-10-18T06:26:00.982Z,13.87
2018-10-18T06:28:30.515Z,15.70
2018-10-18T06:30:59.970Z,15.70
2018-10-18T06:33:29.427Z,14.43
2018-10-18T06:35:58.839Z,13.13
2018-10-18T06:38:28.252Z,12.70
2018-10-18T06:40:57.669Z,12.90
2018-10-18T06:43:27.916Z,11.70
2018-10-18T06:45:57.305Z,10.63
2018-10-18T06:48:27.333Z,9.37
2018-10-18T06:50:56.869Z,12.00
2018-10-18T06:53:26.397Z,10.33
2018-10-18T06:55:55.775Z,11.67
2018-10-18T06:58:25.201Z,9.97
2018-10-18T07:00:54.965Z,10.57
2018-10-18T07:03:24.520Z,11.87
2018-10-18T07:05:53.954Z,13.77
2018-10-18T07:08:23.734Z,14.40
2018-10-18T07:10:53.355Z,14.60
2018-10-18T07:13:22.599Z,13.60
2018-10-18T07:15:53.601Z,12.87
2018-10-18T07:18:23.041Z,13.23
2018-10-18T07:20:52.454Z,12.00
2018-10-18T07:23:21.904Z,12.60
2018-10-18T07:25:51.303Z,10.77
2018-10-18T07:28:20.630Z,11.30
2018-10-18T07:30:50.237Z,10.67
2018-10-18T07:33:19.878Z,11.13
2018-10-18T07:35:49.329Z,12.07
2018-10-18T07:38:18.599Z,11.40
2018-10-18T07:40:47.916Z,12.27
2018-10-18T07:43:17.381Z,14.60
2018-10-18T07:45:46.911Z,13.53
2018-10-18T07:48:16.637Z,13.40
2018-10-18T07:50:46.016Z,15.57
2018-10-18T07:53:15.557Z,13.63
2018-10-18T07:55:44.843Z,15.10
2018-10-18T07:58:14.357Z,15.20
2018-10-18T08:00:43.838Z,15.83
2018-10-18T08:03:13.169Z,16.37
2018-10-18T08:05:42.631Z,14.27
2018-10-18T08:08:12.206Z,15.63
2018-10-18T08:10:41.429Z,17.00
2018-10-18T08:13:11.088Z,18.80
2018-10-18T08:15:40.549Z,17.90
2018-10-18T08:18:10.068Z,19.43
2018-10-18T08:20:39.516Z,15.93
2018-10-18T08:23:08.807Z,16.20
2018-10-18T08:25:38.224Z,17.93
2018-10-18T08:28:07.482Z,19.60
2018-10-18T08:30:37.049Z,17.87
2018-10-18T08:33:06.757Z,18.17
2018-10-18T08:35:36.258Z,19.00
2018-10-18T08:38:05.979Z,21.23
2018-10-18T08:40:35.494Z,19.50
2018-10-18T08:43:05.683Z,20.70
2018-10-18T08:45:34.898Z,17.60
2018-10-18T08:48:04.189Z,17.07
2018-10-18T08:50:33.447Z,17.83
2018-10-18T08:53:02.793Z,17.10
2018-10-18T08:55:32.098Z,15.87
2018-10-18T08:58:01.423Z,17.37
2018-10-18T09:00:31.264Z,16.30
2018-10-18T09:03:00.735Z,17.57
2018-10-18T09:05:30.258Z,17.87
2018-10-18T09:07:59.859Z,14.50
2018-10-18T09:10:29.270Z,15.13
2018-10-18T09:12:59.668Z,17.33
2018-10-18T09:15:29.662Z,15.23
2018-10-18T09:17:59.039Z,14.30
2018-10-18T09:20:28.485Z,13.10
2018-10-18T09:22:58.047Z,14.07
2018-10-18T09:25:27.291Z,16.20
2018-10-18T09:27:56.608Z,15.37
2018-10-18T09:30:26.101Z,14.63
2018-10-18T09:32:55.536Z,12.50
2018-10-18T09:35:24.945Z,12.63
2018-10-18T09:37:54.424Z,12.13
2018-10-18T09:40:23.744Z,11.53
2018-10-18T09:42:53.211Z,14.90
2018-10-18T09:45:22.613Z,13.17
2018-10-18T09:47:52.103Z,12.63
2018-10-18T09:50:21.384Z,13.60
2018-10-18T09:52:50.695Z,11.80
2018-10-18T09:55:20.086Z,12.30
2018-10-18T09:57:49.599Z,11.80
2018-10-18T10:00:23.957Z,11.63
2018-10-18T10:02:58.176Z,12.43
2018-10-18T10:05:27.602Z,11.60
2018-10-18T10:07:56.947Z,13.50
2018-10-18T10:10:26.367Z,11.47
2018-10-18T10:12:55.814Z,10.60
2018-10-18T10:15:25.121Z,11.50
2018-10-18T10:17:55.669Z,10.17
2018-10-18T10:20:25.495Z,9.70
2018-10-18T10:22:55.841Z,12.00
2018-10-18T10:25:25.487Z,9.30
2018-10-18T10:27:55.309Z,11.20
2018-10-18T10:30:24.810Z,9.50
2018-10-18T10:32:54.352Z,10.00
2018-10-18T10:35:23.746Z,12.20
2018-10-18T10:37:53.780Z,10.87
2018-10-18T10:40:23.115Z,12.30
2018-10-18T10:42:52.658Z,12.07
2018-10-18T10:45:22.233Z,10.30
2018-10-18T10:47:52.176Z,10.70
2018-10-18T10:50:21.487Z,12.27
2018-10-18T10:52:50.884Z,11.40
2018-10-18T10:55:20.263Z,11.20
2018-10-18T10:57:49.544Z,11.33
2018-10-18T11:01:29.502Z,10.37
2018-10-18T11:04:00.634Z,10.53
2018-10-18T11:06:30.030Z,11.57
2018-10-18T11:08:59.408Z,11.27
2018-10-18T11:11:28.873Z,10.67
2018-10-18T11:13:58.456Z,11.07
2018-10-18T11:16:28.704Z,11.23
2018-10-18T11:18:57.936Z,9.27
2018-10-18T11:21:27.397Z,10.60
2018-10-18T11:23:57.324Z,15.20
2018-10-18T11:26:26.827Z,11.80
2018-10-18T11:28:56.337Z,12.23
2018-10-18T11:31:25.737Z,10.57
2018-10-18T11:33:54.966Z,10.67
2018-10-18T11:36:24.368Z,11.00
2018-10-18T11:38:53.785Z,10.67
2018-10-18T11:41:24.061Z,11.50
2018-10-18T11:43:54.037Z,9.80
2018-10-18T11:46:23.418Z,10.57
2018-10-18T11:48:52.827Z,11.30
2018-10-18T11:51:22.244Z,11.30
2018-10-18T11:53:51.698Z,13.03
2018-10-18T11:56:21.191Z,12.70
2018-10-18T11:58:50.837Z,10.70
2018-10-18T12:01:20.510Z,11.47
2018-10-18T12:03:49.758Z,10.90
2018-10-18T12:06:19.104Z,12.13
2018-10-18T12:08:49.361Z,12.00
2018-10-18T12:11:18.942Z,12.10
2018-10-18T12:13:48.474Z,12.43
2018-10-18T12:16:17.774Z,12.47
2018-10-18T12:18:47.231Z,11.27
2018-10-18T12:21:17.386Z,11.17
2018-10-18T12:23:47.067Z,11.43
2018-10-18T12:26:16.794Z,12.30
2018-10-18T12:28:46.141Z,13.07
2018-10-18T12:31:16.666Z,11.97
2018-10-18T12:33:46.181Z,12.50
2018-10-18T12:36:16.101Z,13.77
2018-10-18T12:38:45.499Z,13.07
2018-10-18T12:41:15.301Z,12.70
2018-10-18T12:43:44.721Z,12.40
2018-10-18T12:46:14.257Z,12.17
2018-10-18T12:48:43.448Z,12.30
2018-10-18T12:51:12.893Z,9.80
2018-10-18T12:53:42.689Z,9.77
2018-10-18T12:56:12.264Z,8.97
2018-10-18T12:58:41.718Z,9.40
2018-10-18T13:01:11.111Z,10.23
2018-10-18T13:03:40.912Z,8.20
2018-10-18T13:06:10.342Z,8.90
2018-10-18T13:08:39.829Z,8.13
2018-10-18T13:11:09.233Z,9.10
2018-10-18T13:13:38.641Z,7.57
2018-10-18T13:16:08.060Z,8.87
2018-10-18T13:18:37.562Z,6.87
2018-10-18T13:21:07.202Z,8.13
2018-10-18T13:23:36.775Z,6.77
2018-10-18T13:26:06.603Z,8.07
2018-10-18T13:28:36.589Z,7.40
2018-10-18T13:31:06.197Z,7.60
2018-10-18T13:33:35.910Z,7.00
2018-10-18T13:36:05.722Z,6.60
2018-10-18T13:38:35.119Z,6.80
2018-10-18T13:41:04.378Z,8.37
2018-10-18T13:43:33.718Z,7.17
2018-10-18T13:46:02.883Z,7.87
2018-10-18T13:48:32.331Z,6.83
2018-10-18T13:51:01.611Z,7.57
2018-10-18T13:53:36.145Z,7.33
2018-10-18T13:56:06.497Z,7.00
2018-10-18T13:58:36.089Z,6.63
2018-10-18T14:01:05.479Z,6.67
2018-10-18T14:03:34.749Z,8.30
2018-10-18T14:06:04.153Z,7.10
2018-10-18T14:08:34.316Z,8.70
2018-10-18T14:11:04.700Z,7.97
2018-10-18T14:13:34.418Z,7.83
2018-10-18T14:16:03.873Z,8.63
2018-10-18T14:18:33.547Z,8.73
2018-10-18T14:21:04.012Z,8.00
2018-10-18T14:23:33.824Z,8.07
2018-10-18T14:26:04.476Z,9.20
2018-10-18T14:28:34.186Z,8.37
2018-10-18T14:31:04.110Z,9.43
2018-10-18T14:33:33.663Z,7.80
2018-10-18T14:36:03.066Z,8.60
2018-10-18T14:38:32.701Z,7.50
2018-10-18T14:41:02.324Z,7.00
2018-10-18T14:43:32.928Z,7.70
2018-10-18T14:46:03.227Z,8.43
2018-10-18T14:48:32.706Z,8.53
2018-10-18T14:51:02.329Z,8.60
2018-10-18T14:53:31.621Z,9.00
2018-10-18T14:56:01.028Z,8.60
2018-10-18T14:58:30.803Z,8.93
2018-10-18T15:01:00.543Z,9.03
2018-10-18T15:03:31.088Z,7.73
2018-10-18T15:06:00.733Z,9.00
2018-10-18T15:08:30.295Z,7.63
2018-10-18T15:11:00.106Z,7.77
2018-10-18T15:13:29.974Z,9.73
2018-10-18T15:16:00.375Z,10.03
2018-10-18T15:18:30.252Z,9.60
2018-10-18T15:21:00.738Z,9.23
2018-10-18T15:23:31.949Z,12.20
2018-10-18T15:26:01.855Z,13.80
2018-10-18T15:28:31.683Z,10.60
2018-10-18T15:31:01.066Z,12.10
2018-10-18T15:33:30.559Z,10.90
2018-10-18T15:36:00.113Z,10.53
2018-10-18T15:38:31.896Z,11.30
2018-10-18T15:41:01.476Z,10.77
2018-10-18T15:43:31.224Z,10.90
2018-10-18T15:46:01.117Z,9.70
2018-10-18T15:48:32.086Z,11.13
2018-10-18T15:51:02.031Z,10.10
2018-10-18T15:53:32.129Z,9.07
2018-10-18T15:56:02.972Z,9.50
2018-10-18T15:58:35.117Z,9.53
2018-10-18T16:01:05.304Z,17.13
2018-10-18T16:03:35.978Z,26.63
2018-10-18T16:06:06.501Z,23.30
2018-10-18T16:08:36.297Z,16.13
2018-10-18T16:11:06.184Z,13.07
2018-10-18T16:13:37.593Z,12.07
2018-10-18T16:16:07.605Z,14.97
2018-10-18T16:18:38.177Z,13.30
2018-10-18T16:21:08.598Z,10.50
2018-10-18T16:23:38.058Z,10.50
2018-10-18T16:26:07.715Z,10.13
2018-10-18T16:28:37.382Z,10.17
2018-10-18T16:31:06.900Z,11.43
2018-10-18T16:33:36.263Z,14.37
2018-10-18T16:36:07.116Z,14.37
2018-10-18T16:38:36.640Z,10.63
2018-10-18T16:41:07.279Z,11.67
2018-10-18T16:43:36.847Z,12.00
2018-10-18T16:46:06.791Z,12.03
2018-10-18T16:48:37.003Z,13.50
2018-10-18T16:51:06.677Z,12.97
2018-10-18T16:53:36.341Z,12.03
2018-10-18T16:56:07.777Z,11.70
2018-10-18T16:58:37.457Z,11.03
2018-10-18T17:01:07.230Z,10.63
2018-10-18T17:03:37.496Z,11.93
2018-10-18T17:06:07.399Z,11.20
2018-10-18T17:08:38.077Z,10.00
2018-10-18T17:11:08.490Z,9.50
2018-10-18T17:13:38.004Z,10.20
2018-10-18T17:16:07.885Z,9.93
2018-10-18T17:18:37.445Z,9.97
2018-10-18T17:21:08.874Z,10.50
2018-10-18T17:23:38.726Z,11.47
2018-10-18T17:26:08.735Z,12.27
2018-10-18T17:28:38.643Z,13.57
2018-10-18T17:31:08.077Z,10.53
2018-10-18T17:33:37.765Z,11.13
2018-10-18T17:36:07.447Z,11.50
2018-10-18T17:38:37.004Z,10.80
2018-10-18T17:41:06.694Z,11.00
2018-10-18T17:43:37.061Z,11.10
2018-10-18T17:46:06.911Z,12.20
2018-10-18T17:48:36.665Z,12.33
2018-10-18T17:51:06.239Z,11.57
2018-10-18T17:53:36.123Z,11.40
2018-10-18T17:56:06.079Z,12.73
2018-10-18T17:58:37.440Z,9.83
2018-10-18T18:01:07.988Z,11.70
2018-10-18T18:03:40.691Z,11.50
2018-10-18T18:06:12.467Z,12.40
2018-10-18T18:08:41.927Z,11.83
2018-10-18T18:11:11.875Z,11.73
2018-10-18T18:13:41.254Z,11.60
2018-10-18T18:16:10.942Z,11.60
2018-10-18T18:18:40.430Z,13.00
2018-10-18T18:21:10.671Z,11.00
2018-10-18T18:23:40.307Z,12.00
2018-10-18T18:26:09.788Z,12.00
2018-10-18T18:28:39.339Z,11.07
2018-10-18T18:31:09.715Z,10.43
2018-10-18T18:33:39.132Z,9.97
2018-10-18T18:36:08.800Z,11.70
2018-10-18T18:38:38.629Z,11.87
2018-10-18T18:41:08.043Z,11.70
2018-10-18T18:43:37.537Z,12.53
2018-10-18T18:46:07.096Z,10.87
2018-10-18T18:48:36.955Z,10.93
2018-10-18T18:51:07.034Z,11.53
2018-10-18T18:53:36.741Z,13.13
2018-10-18T18:56:06.317Z,13.00
2018-10-18T18:58:35.884Z,12.47
2018-10-18T19:01:05.749Z,11.10
2018-10-18T19:03:35.156Z,13.40
2018-10-18T19:06:05.872Z,10.90
2018-10-18T19:08:35.416Z,11.57
2018-10-18T19:11:05.096Z,12.77
2018-10-18T19:13:34.691Z,12.10
2018-10-18T19:16:04.262Z,12.27
2018-10-18T19:18:33.626Z,11.90
2018-10-18T19:21:03.271Z,11.33
2018-10-18T19:23:32.985Z,11.53
2018-10-18T19:26:02.373Z,12.53
2018-10-18T19:28:32.803Z,12.27
2018-10-18T19:31:02.279Z,11.93
2018-10-18T19:33:31.910Z,11.97
2018-10-18T19:36:01.310Z,12.80
2018-10-18T19:38:31.024Z,14.17
2018-10-18T19:41:00.326Z,13.67
2018-10-18T19:43:29.959Z,12.77
2018-10-18T19:45:59.479Z,12.30
2018-10-18T19:48:28.882Z,12.23
2018-10-18T19:50:58.370Z,13.10
2018-10-18T19:53:27.806Z,13.63
2018-10-18T19:55:57.196Z,13.13
2018-10-18T19:58:26.488Z,14.00
2018-10-18T20:00:55.844Z,13.93
2018-10-18T20:03:25.265Z,14.50
2018-10-18T20:05:54.729Z,14.50
2018-10-18T20:08:24.333Z,13.17
2018-10-18T20:10:53.797Z,14.53
2018-10-18T20:13:23.376Z,13.90
2018-10-18T20:15:52.900Z,12.03
2018-10-18T20:18:22.488Z,13.33
2018-10-18T20:20:52.848Z,14.13
2018-10-18T20:23:22.304Z,13.37
2018-10-18T20:25:52.132Z,13.87
2018-10-18T20:28:22.626Z,13.03
2018-10-18T20:30:51.987Z,12.57
2018-10-18T20:33:22.214Z,11.30
2018-10-18T20:35:51.583Z,13.40
2018-10-18T20:38:21.674Z,12.77
2018-10-18T20:40:51.112Z,14.00
2018-10-18T20:43:21.060Z,13.00
2018-10-18T20:45:50.693Z,14.47
2018-10-18T20:48:20.115Z,13.77
2018-10-18T20:50:50.852Z,14.70
2018-10-18T20:53:20.148Z,13.77
2018-10-18T20:55:49.728Z,12.73
2018-10-18T20:58:20.129Z,11.93
2018-10-18T21:00:49.990Z,13.23
2018-10-18T21:03:19.364Z,11.47
2018-10-18T21:05:48.682Z,12.87
2018-10-18T21:08:18.109Z,12.50
2018-10-18T21:10:47.677Z,13.07
2018-10-18T21:13:17.183Z,12.70
2018-10-18T21:15:46.684Z,11.90
2018-10-18T21:18:17.889Z,13.60
2018-10-18T21:20:47.547Z,13.37
2018-10-18T21:23:16.993Z,13.33
2018-10-18T21:25:46.271Z,13.37
2018-10-18T21:28:16.888Z,12.00
2018-10-18T21:30:46.214Z,12.07
2018-10-18T21:33:15.552Z,11.63
2018-10-18T21:35:44.979Z,12.77
2018-10-18T21:38:14.378Z,13.67
2018-10-18T21:40:43.680Z,11.70
2018-10-18T21:43:13.156Z,13.63
2018-10-18T21:45:42.516Z,12.80
2018-10-18T21:48:12.098Z,12.43
2018-10-18T21:50:41.483Z,12.67
2018-10-18T21:53:10.886Z,13.40
2018-10-18T21:55:40.292Z,13.10
2018-10-18T21:58:09.788Z,13.40
2018-10-18T22:00:45.417Z,14.30
2018-10-18T22:03:14.920Z,13.07
2018-10-18T22:05:44.216Z,14.30
2018-10-18T22:08:13.496Z,12.13
2018-10-18T22:10:42.993Z,12.27
2018-10-18T22:13:12.445Z,13.57
2018-10-18T22:15:41.633Z,13.73
2018-10-18T22:18:11.281Z,14.57
2018-10-18T22:20:40.724Z,12.50
2018-10-18T22:23:10.290Z,14.10
2018-10-18T22:25:40.158Z,12.43
2018-10-18T22:28:09.690Z,12.60
2018-10-18T22:30:39.255Z,13.80
2018-10-18T22:33:08.752Z,13.57
2018-10-18T22:35:38.037Z,14.10
2018-10-18T22:38:07.555Z,12.27
2018-10-18T22:40:36.857Z,13.40
2018-10-18T22:43:06.411Z,13.63
2018-10-18T22:45:35.693Z,13.17
2018-10-18T22:48:04.999Z,13.40
2018-10-18T22:50:34.266Z,13.97
2018-10-18T22:53:03.521Z,12.67
2018-10-18T22:55:32.853Z,13.20
2018-10-18T22:58:02.226Z,14.10
2018-10-18T23:00:31.725Z,14.63
2018-10-18T23:03:01.169Z,14.90
2018-10-18T23:05:30.991Z,13.30
2018-10-18T23:08:00.293Z,12.63
2018-10-18T23:10:29.681Z,14.40
2018-10-18T23:12:59.016Z,13.10
2018-10-18T23:15:28.437Z,13.00
2018-10-18T23:17:57.938Z,13.10
2018-10-18T23:20:27.374Z,13.20
2018-10-18T23:22:56.832Z,12.50
2018-10-18T23:25:26.526Z,12.67
2018-10-18T23:27:55.791Z,12.80
2018-10-18T23:30:25.089Z,10.90
2018-10-18T23:32:54.522Z,12.10
2018-10-18T23:35:23.963Z,11.50
2018-10-18T23:37:53.540Z,12.07
2018-10-18T23:40:23.023Z,12.87
2018-10-18T23:42:52.269Z,13.30
2018-10-18T23:45:22.504Z,13.27
2018-10-18T23:47:53.012Z,13.87
2018-10-18T23:50:22.755Z,13.33
2018-10-18T23:52:52.187Z,12.30
2018-10-18T23:55:21.400Z,12.77
2018-10-18T23:57:50.809Z,12.73
